sensor_id;sensor_type;location;lat;lon;timestamp;temperature;humidity
43249;DHT22;29216;51.248;6.808;2022-12-26T00:01:47;11.30;99.90
43249;DHT22;29216;51.248;6.808;2022-12-26T00:04:14;11.30;99.90
43249;DHT22;29216;51.248;6.808;2022-12-26T00:06:40;11.40;99.90
43249;DHT22;29216;51.248;6.808;2022-12-26T00:09:06;11.40;99.90
43249;DHT22;29216;51.248;6.808;2022-12-26T00:11:33;11.30;99.90
43249;DHT22;29216;51.248;6.808;2022-12-26T00:14:05;11.30;99.90
43249;DHT22;29216;51.248;6.808;2022-12-26T00:16:31;11.30;99.90
43249;DHT22;29216;51.248;6.808;2022-12-26T00:18:57;11.20;99.90
43249;DHT22;29216;51.248;6.808;2022-12-26T00:21:23;11.30;99.90
43249;DHT22;29216;51.248;6.808;2022-12-26T00:23:52;11.20;99.90
43249;DHT22;29216;51.248;6.808;2022-12-26T00:26:20;11.20;99.90
43249;DHT22;29216;51.248;6.808;2022-12-26T00:28:46;11.20;99.90
43249;DHT22;29216;51.248;6.808;2022-12-26T00:31:18;11.20;99.90
43249;DHT22;29216;51.248;6.808;2022-12-26T00:33:44;11.20;99.90
43249;DHT22;29216;51.248;6.808;2022-12-26T00:36:14;11.20;99.90
43249;DHT22;29216;51.248;6.808;2022-12-26T00:38:41;11.30;99.90
43249;DHT22;29216;51.248;6.808;2022-12-26T00:41:07;11.30;99.90
43249;DHT22;29216;51.248;6.808;2022-12-26T00:43:34;11.40;99.90
43249;DHT22;29216;51.248;6.808;2022-12-26T00:46:00;11.30;99.90
43249;DHT22;29216;51.248;6.808;2022-12-26T00:48:26;11.40;99.90
43249;DHT22;29216;51.248;6.808;2022-12-26T00:50:51;11.40;99.90
43249;DHT22;29216;51.248;6.808;2022-12-26T00:53:18;11.30;99.90
43249;DHT22;29216;51.248;6.808;2022-12-26T00:55:44;11.40;99.90
43249;DHT22;29216;51.248;6.808;2022-12-26T00:58:09;11.40;99.90
43249;DHT22;29216;51.248;6.808;2022-12-26T01:00:35;11.40;99.90
43249;DHT22;29216;51.248;6.808;2022-12-26T01:03:02;11.30;99.90
43249;DHT22;29216;51.248;6.808;2022-12-26T01:05:27;11.30;99.90
43249;DHT22;29216;51.248;6.808;2022-12-26T01:07:54;11.30;99.90
43249;DHT22;29216;51.248;6.808;2022-12-26T01:10:20;11.30;99.90
43249;DHT22;29216;51.248;6.808;2022-12-26T01:12:46;11.40;99.90
43249;DHT22;29216;51.248;6.808;2022-12-26T01:15:11;11.40;99.90
43249;DHT22;29216;51.248;6.808;2022-12-26T01:17:37;11.30;99.90
43249;DHT22;29216;51.248;6.808;2022-12-26T01:20:03;11.30;99.90
43249;DHT22;29216;51.248;6.808;2022-12-26T01:22:29;11.40;99.90
43249;DHT22;29216;51.248;6.808;2022-12-26T01:24:56;11.30;99.90
43249;DHT22;29216;51.248;6.808;2022-12-26T01:27:23;11.30;99.90
43249;DHT22;29216;51.248;6.808;2022-12-26T01:29:49;11.40;99.90
43249;DHT22;29216;51.248;6.808;2022-12-26T01:32:14;11.30;99.90
43249;DHT22;29216;51.248;6.808;2022-12-26T01:34:40;11.30;99.90
43249;DHT22;29216;51.248;6.808;2022-12-26T01:37:06;11.30;99.90
43249;DHT22;29216;51.248;6.808;2022-12-26T01:39:32;11.30;99.90
43249;DHT22;29216;51.248;6.808;2022-12-26T01:41:58;11.20;99.90
43249;DHT22;29216;51.248;6.808;2022-12-26T01:47:22;11.20;99.90
43249;DHT22;29216;51.248;6.808;2022-12-26T01:49:52;11.20;99.90
43249;DHT22;29216;51.248;6.808;2022-12-26T01:52:40;11.20;99.90
43249;DHT22;29216;51.248;6.808;2022-12-26T01:55:10;11.20;99.90
43249;DHT22;29216;51.248;6.808;2022-12-26T01:57:44;11.20;99.90
43249;DHT22;29216;51.248;6.808;2022-12-26T02:00:11;11.20;99.90
43249;DHT22;29216;51.248;6.808;2022-12-26T02:02:37;11.10;99.90
43249;DHT22;29216;51.248;6.808;2022-12-26T02:05:23;11.10;99.90
43249;DHT22;29216;51.248;6.808;2022-12-26T02:08:14;11.20;99.90
43249;DHT22;29216;51.248;6.808;2022-12-26T02:10:49;11.10;99.90
43249;DHT22;29216;51.248;6.808;2022-12-26T02:13:16;11.10;99.90
43249;DHT22;29216;51.248;6.808;2022-12-26T02:15:43;11.10;99.90
43249;DHT22;29216;51.248;6.808;2022-12-26T02:18:08;11.10;99.90
43249;DHT22;29216;51.248;6.808;2022-12-26T02:20:54;11.10;99.90
43249;DHT22;29216;51.248;6.808;2022-12-26T02:26:00;11.10;99.90
43249;DHT22;29216;51.248;6.808;2022-12-26T02:31:47;11.10;99.90
43249;DHT22;29216;51.248;6.808;2022-12-26T02:34:21;11.00;99.90
43249;DHT22;29216;51.248;6.808;2022-12-26T02:37:30;11.00;99.90
43249;DHT22;29216;51.248;6.808;2022-12-26T02:40:02;11.00;99.90
43249;DHT22;29216;51.248;6.808;2022-12-26T02:43:04;11.10;99.90
43249;DHT22;29216;51.248;6.808;2022-12-26T02:51:22;11.10;99.90
43249;DHT22;29216;51.248;6.808;2022-12-26T02:57:16;11.10;99.90
43249;DHT22;29216;51.248;6.808;2022-12-26T03:00:03;11.10;99.90
43249;DHT22;29216;51.248;6.808;2022-12-26T03:05:49;11.10;99.90
43249;DHT22;29216;51.248;6.808;2022-12-26T03:08:43;11.10;99.90
43249;DHT22;29216;51.248;6.808;2022-12-26T03:11:33;11.10;99.90
43249;DHT22;29216;51.248;6.808;2022-12-26T03:14:25;11.10;99.90
43249;DHT22;29216;51.248;6.808;2022-12-26T03:16:57;11.10;99.90
43249;DHT22;29216;51.248;6.808;2022-12-26T03:19:45;11.10;99.90
43249;DHT22;29216;51.248;6.808;2022-12-26T03:22:40;11.20;99.90
43249;DHT22;29216;51.248;6.808;2022-12-26T03:25:14;11.20;99.90
43249;DHT22;29216;51.248;6.808;2022-12-26T03:28:00;11.10;99.90
43249;DHT22;29216;51.248;6.808;2022-12-26T03:30:26;11.10;99.90
43249;DHT22;29216;51.248;6.808;2022-12-26T03:33:10;11.00;99.90
43249;DHT22;29216;51.248;6.808;2022-12-26T03:35:54;11.00;99.90
43249;DHT22;29216;51.248;6.808;2022-12-26T03:38:25;11.00;99.90
43249;DHT22;29216;51.248;6.808;2022-12-26T03:41:13;10.90;99.90
43249;DHT22;29216;51.248;6.808;2022-12-26T03:44:45;10.90;99.90
43249;DHT22;29216;51.248;6.808;2022-12-26T03:50:38;10.80;99.90
43249;DHT22;29216;51.248;6.808;2022-12-26T03:53:31;10.80;99.90
43249;DHT22;29216;51.248;6.808;2022-12-26T03:59:26;10.80;99.90
43249;DHT22;29216;51.248;6.808;2022-12-26T04:02:14;10.80;99.90
43249;DHT22;29216;51.248;6.808;2022-12-26T04:05:00;10.70;99.90
43249;DHT22;29216;51.248;6.808;2022-12-26T04:07:51;10.60;99.90
43249;DHT22;29216;51.248;6.808;2022-12-26T04:10:40;10.60;99.90
43249;DHT22;29216;51.248;6.808;2022-12-26T04:14:20;10.40;99.90
43249;DHT22;29216;51.248;6.808;2022-12-26T04:16:43;10.40;99.90
43249;DHT22;29216;51.248;6.808;2022-12-26T04:25:00;10.20;99.90
43249;DHT22;29216;51.248;6.808;2022-12-26T04:27:46;10.10;99.90
43249;DHT22;29216;51.248;6.808;2022-12-26T04:30:33;10.10;99.90
43249;DHT22;29216;51.248;6.808;2022-12-26T04:33:33;10.10;99.90
43249;DHT22;29216;51.248;6.808;2022-12-26T04:36:31;10.10;99.90
43249;DHT22;29216;51.248;6.808;2022-12-26T04:39:19;10.10;99.90
43249;DHT22;29216;51.248;6.808;2022-12-26T04:42:06;10.10;99.90
43249;DHT22;29216;51.248;6.808;2022-12-26T04:44:50;10.00;99.90
43249;DHT22;29216;51.248;6.808;2022-12-26T04:47:16;10.00;99.90
43249;DHT22;29216;51.248;6.808;2022-12-26T04:49:43;10.00;99.90
43249;DHT22;29216;51.248;6.808;2022-12-26T04:52:28;10.00;99.90
43249;DHT22;29216;51.248;6.808;2022-12-26T04:55:13;10.00;99.90
43249;DHT22;29216;51.248;6.808;2022-12-26T04:57:39;10.00;99.90
43249;DHT22;29216;51.248;6.808;2022-12-26T05:00:05;10.00;99.90
43249;DHT22;29216;51.248;6.808;2022-12-26T05:02:31;10.10;99.90
43249;DHT22;29216;51.248;6.808;2022-12-26T05:05:15;10.10;99.90
43249;DHT22;29216;51.248;6.808;2022-12-26T05:07:59;10.20;99.90
43249;DHT22;29216;51.248;6.808;2022-12-26T05:10:43;10.20;99.90
43249;DHT22;29216;51.248;6.808;2022-12-26T05:13:09;10.20;99.90
43249;DHT22;29216;51.248;6.808;2022-12-26T05:15:35;10.20;99.90
43249;DHT22;29216;51.248;6.808;2022-12-26T05:18:21;10.20;99.90
43249;DHT22;29216;51.248;6.808;2022-12-26T05:21:13;10.20;99.90
43249;DHT22;29216;51.248;6.808;2022-12-26T05:23:59;10.20;99.90
43249;DHT22;29216;51.248;6.808;2022-12-26T05:26:40;10.20;99.90
43249;DHT22;29216;51.248;6.808;2022-12-26T05:29:25;10.20;99.90
43249;DHT22;29216;51.248;6.808;2022-12-26T05:31:50;10.10;99.90
43249;DHT22;29216;51.248;6.808;2022-12-26T05:34:16;10.10;99.90
43249;DHT22;29216;51.248;6.808;2022-12-26T05:36:53;10.10;99.90
43249;DHT22;29216;51.248;6.808;2022-12-26T05:39:21;10.10;99.90
43249;DHT22;29216;51.248;6.808;2022-12-26T05:41:47;10.10;99.90
43249;DHT22;29216;51.248;6.808;2022-12-26T05:44:13;10.10;99.90
43249;DHT22;29216;51.248;6.808;2022-12-26T05:46:39;10.10;99.90
43249;DHT22;29216;51.248;6.808;2022-12-26T05:49:07;10.10;99.90
43249;DHT22;29216;51.248;6.808;2022-12-26T05:51:34;10.10;99.90
43249;DHT22;29216;51.248;6.808;2022-12-26T05:54:00;10.10;99.90
43249;DHT22;29216;51.248;6.808;2022-12-26T05:56:26;10.10;99.90
43249;DHT22;29216;51.248;6.808;2022-12-26T05:58:57;10.10;99.90
43249;DHT22;29216;51.248;6.808;2022-12-26T06:01:24;10.10;99.90
43249;DHT22;29216;51.248;6.808;2022-12-26T06:03:56;10.10;99.90
43249;DHT22;29216;51.248;6.808;2022-12-26T06:06:23;10.10;99.90
43249;DHT22;29216;51.248;6.808;2022-12-26T06:08:51;10.10;99.90
43249;DHT22;29216;51.248;6.808;2022-12-26T06:11:17;10.10;99.90
43249;DHT22;29216;51.248;6.808;2022-12-26T06:13:44;10.20;99.90
43249;DHT22;29216;51.248;6.808;2022-12-26T06:16:12;10.20;99.90
43249;DHT22;29216;51.248;6.808;2022-12-26T06:18:38;10.20;99.90
43249;DHT22;29216;51.248;6.808;2022-12-26T06:21:05;10.20;99.90
43249;DHT22;29216;51.248;6.808;2022-12-26T06:23:32;10.20;99.90
43249;DHT22;29216;51.248;6.808;2022-12-26T06:25:58;10.20;99.90
43249;DHT22;29216;51.248;6.808;2022-12-26T06:28:24;10.20;99.90
43249;DHT22;29216;51.248;6.808;2022-12-26T06:30:51;10.20;99.90
43249;DHT22;29216;51.248;6.808;2022-12-26T06:33:17;10.20;99.90
43249;DHT22;29216;51.248;6.808;2022-12-26T06:35:43;10.20;99.90
43249;DHT22;29216;51.248;6.808;2022-12-26T06:38:09;10.20;99.90
43249;DHT22;29216;51.248;6.808;2022-12-26T06:40:40;10.20;99.90
43249;DHT22;29216;51.248;6.808;2022-12-26T06:43:07;10.20;99.90
43249;DHT22;29216;51.248;6.808;2022-12-26T06:45:34;10.30;99.90
43249;DHT22;29216;51.248;6.808;2022-12-26T06:48:00;10.30;99.90
43249;DHT22;29216;51.248;6.808;2022-12-26T06:50:26;10.30;99.90
43249;DHT22;29216;51.248;6.808;2022-12-26T06:52:51;10.40;99.90
43249;DHT22;29216;51.248;6.808;2022-12-26T06:55:17;10.40;99.90
43249;DHT22;29216;51.248;6.808;2022-12-26T06:57:43;10.40;99.90
43249;DHT22;29216;51.248;6.808;2022-12-26T07:00:09;10.40;99.90
43249;DHT22;29216;51.248;6.808;2022-12-26T07:02:35;10.40;99.90
43249;DHT22;29216;51.248;6.808;2022-12-26T07:05:01;10.40;99.90
43249;DHT22;29216;51.248;6.808;2022-12-26T07:07:26;10.40;99.90
43249;DHT22;29216;51.248;6.808;2022-12-26T07:09:52;10.30;99.90
43249;DHT22;29216;51.248;6.808;2022-12-26T07:12:18;10.30;99.90
43249;DHT22;29216;51.248;6.808;2022-12-26T07:14:46;10.40;99.90
43249;DHT22;29216;51.248;6.808;2022-12-26T07:17:12;10.40;99.90
43249;DHT22;29216;51.248;6.808;2022-12-26T07:19:38;10.40;99.90
43249;DHT22;29216;51.248;6.808;2022-12-26T07:22:04;10.40;99.90
43249;DHT22;29216;51.248;6.808;2022-12-26T07:24:29;10.50;99.90
43249;DHT22;29216;51.248;6.808;2022-12-26T07:26:55;10.50;99.90
43249;DHT22;29216;51.248;6.808;2022-12-26T07:29:21;10.50;99.90
43249;DHT22;29216;51.248;6.808;2022-12-26T07:31:47;10.50;99.90
43249;DHT22;29216;51.248;6.808;2022-12-26T07:34:13;10.50;99.90
43249;DHT22;29216;51.248;6.808;2022-12-26T07:36:39;10.60;99.90
43249;DHT22;29216;51.248;6.808;2022-12-26T07:39:05;10.50;99.90
43249;DHT22;29216;51.248;6.808;2022-12-26T07:41:31;10.50;99.90
43249;DHT22;29216;51.248;6.808;2022-12-26T07:44:15;10.50;99.90
43249;DHT22;29216;51.248;6.808;2022-12-26T07:46:41;10.40;99.90
43249;DHT22;29216;51.248;6.808;2022-12-26T07:49:09;10.40;99.90
43249;DHT22;29216;51.248;6.808;2022-12-26T07:51:35;10.40;99.90
43249;DHT22;29216;51.248;6.808;2022-12-26T07:54:01;10.40;99.90
43249;DHT22;29216;51.248;6.808;2022-12-26T07:56:26;10.40;99.90
43249;DHT22;29216;51.248;6.808;2022-12-26T07:58:52;10.40;99.90
43249;DHT22;29216;51.248;6.808;2022-12-26T08:01:18;10.40;99.90
43249;DHT22;29216;51.248;6.808;2022-12-26T08:03:46;10.50;99.90
43249;DHT22;29216;51.248;6.808;2022-12-26T08:06:12;10.50;99.90
43249;DHT22;29216;51.248;6.808;2022-12-26T08:08:37;10.60;99.90
43249;DHT22;29216;51.248;6.808;2022-12-26T08:11:05;10.60;99.90
43249;DHT22;29216;51.248;6.808;2022-12-26T08:13:31;10.60;99.90
43249;DHT22;29216;51.248;6.808;2022-12-26T08:15:58;10.60;99.90
43249;DHT22;29216;51.248;6.808;2022-12-26T08:18:24;10.60;99.90
43249;DHT22;29216;51.248;6.808;2022-12-26T08:20:50;10.60;99.90
43249;DHT22;29216;51.248;6.808;2022-12-26T08:23:16;10.60;99.90
43249;DHT22;29216;51.248;6.808;2022-12-26T08:25:42;10.60;99.90
43249;DHT22;29216;51.248;6.808;2022-12-26T08:28:07;10.60;99.90
43249;DHT22;29216;51.248;6.808;2022-12-26T08:30:33;10.60;99.90
43249;DHT22;29216;51.248;6.808;2022-12-26T08:32:59;10.60;99.90
43249;DHT22;29216;51.248;6.808;2022-12-26T08:35:24;10.60;99.90
43249;DHT22;29216;51.248;6.808;2022-12-26T08:37:50;10.60;99.90
43249;DHT22;29216;51.248;6.808;2022-12-26T08:40:16;10.60;99.90
43249;DHT22;29216;51.248;6.808;2022-12-26T08:42:41;10.60;99.90
43249;DHT22;29216;51.248;6.808;2022-12-26T08:45:07;10.70;99.90
43249;DHT22;29216;51.248;6.808;2022-12-26T08:47:33;10.70;99.90
43249;DHT22;29216;51.248;6.808;2022-12-26T08:49:59;10.70;99.90
43249;DHT22;29216;51.248;6.808;2022-12-26T08:52:25;10.60;99.90
43249;DHT22;29216;51.248;6.808;2022-12-26T08:54:50;10.60;99.90
43249;DHT22;29216;51.248;6.808;2022-12-26T08:57:16;10.70;99.90
43249;DHT22;29216;51.248;6.808;2022-12-26T08:59:42;10.70;99.90
43249;DHT22;29216;51.248;6.808;2022-12-26T09:02:11;10.60;99.90
43249;DHT22;29216;51.248;6.808;2022-12-26T09:04:36;10.70;99.90
43249;DHT22;29216;51.248;6.808;2022-12-26T09:07:03;10.60;99.90
43249;DHT22;29216;51.248;6.808;2022-12-26T09:09:28;10.60;99.90
43249;DHT22;29216;51.248;6.808;2022-12-26T09:11:54;10.70;99.90
43249;DHT22;29216;51.248;6.808;2022-12-26T09:14:20;10.70;99.90
43249;DHT22;29216;51.248;6.808;2022-12-26T09:16:46;10.70;99.90
43249;DHT22;29216;51.248;6.808;2022-12-26T09:19:14;10.70;99.90
43249;DHT22;29216;51.248;6.808;2022-12-26T09:21:42;10.70;99.90
43249;DHT22;29216;51.248;6.808;2022-12-26T09:24:13;10.70;99.90
43249;DHT22;29216;51.248;6.808;2022-12-26T09:26:39;10.70;99.90
43249;DHT22;29216;51.248;6.808;2022-12-26T09:29:05;10.70;99.90
43249;DHT22;29216;51.248;6.808;2022-12-26T09:31:33;10.70;99.90
43249;DHT22;29216;51.248;6.808;2022-12-26T09:34:04;10.60;99.90
43249;DHT22;29216;51.248;6.808;2022-12-26T09:36:32;10.60;99.90
43249;DHT22;29216;51.248;6.808;2022-12-26T09:38:59;10.50;99.90
43249;DHT22;29216;51.248;6.808;2022-12-26T09:49:23;10.50;99.90
43249;DHT22;29216;51.248;6.808;2022-12-26T09:51:55;10.50;99.90
43249;DHT22;29216;51.248;6.808;2022-12-26T09:54:33;10.60;99.90
43249;DHT22;29216;51.248;6.808;2022-12-26T09:57:01;10.60;99.90
43249;DHT22;29216;51.248;6.808;2022-12-26T09:59:31;10.70;99.90
43249;DHT22;29216;51.248;6.808;2022-12-26T10:01:58;10.80;99.90
43249;DHT22;29216;51.248;6.808;2022-12-26T10:04:27;10.80;99.90
43249;DHT22;29216;51.248;6.808;2022-12-26T10:10:09;10.90;99.90
43249;DHT22;29216;51.248;6.808;2022-12-26T10:13:06;11.00;99.90
43249;DHT22;29216;51.248;6.808;2022-12-26T10:23:34;11.00;99.90
43249;DHT22;29216;51.248;6.808;2022-12-26T10:26:06;11.10;99.90
43249;DHT22;29216;51.248;6.808;2022-12-26T10:31:35;11.10;99.90
43249;DHT22;29216;51.248;6.808;2022-12-26T10:36:39;11.20;99.90
43249;DHT22;29216;51.248;6.808;2022-12-26T10:39:22;11.30;99.90
43249;DHT22;29216;51.248;6.808;2022-12-26T10:41:52;11.30;99.90
43249;DHT22;29216;51.248;6.808;2022-12-26T10:44:19;11.30;99.90
43249;DHT22;29216;51.248;6.808;2022-12-26T10:49:12;11.40;99.90
43249;DHT22;29216;51.248;6.808;2022-12-26T10:51:39;11.40;99.90
43249;DHT22;29216;51.248;6.808;2022-12-26T10:54:15;11.50;99.90
43249;DHT22;29216;51.248;6.808;2022-12-26T10:56:46;11.50;99.90
43249;DHT22;29216;51.248;6.808;2022-12-26T10:59:17;11.60;99.90
43249;DHT22;29216;51.248;6.808;2022-12-26T11:01:43;11.60;99.90
43249;DHT22;29216;51.248;6.808;2022-12-26T11:04:19;11.60;99.90
43249;DHT22;29216;51.248;6.808;2022-12-26T11:06:47;11.70;99.90
43249;DHT22;29216;51.248;6.808;2022-12-26T11:11:52;11.70;99.90
43249;DHT22;29216;51.248;6.808;2022-12-26T11:14:35;11.80;99.90
43249;DHT22;29216;51.248;6.808;2022-12-26T11:17:08;11.80;99.90
43249;DHT22;29216;51.248;6.808;2022-12-26T11:19:38;11.90;95.60
43249;DHT22;29216;51.248;6.808;2022-12-26T11:25:05;11.80;98.00
43249;DHT22;29216;51.248;6.808;2022-12-26T11:27:36;11.90;97.60
43249;DHT22;29216;51.248;6.808;2022-12-26T11:32:59;11.90;99.10
43249;DHT22;29216;51.248;6.808;2022-12-26T11:35:28;12.00;97.00
43249;DHT22;29216;51.248;6.808;2022-12-26T11:38:00;12.00;91.30
43249;DHT22;29216;51.248;6.808;2022-12-26T11:40:36;12.10;92.30
43249;DHT22;29216;51.248;6.808;2022-12-26T11:43:05;12.10;90.10
43249;DHT22;29216;51.248;6.808;2022-12-26T11:45:35;12.10;92.10
43249;DHT22;29216;51.248;6.808;2022-12-26T11:48:16;12.10;89.90
43249;DHT22;29216;51.248;6.808;2022-12-26T11:50:44;12.00;90.30
43249;DHT22;29216;51.248;6.808;2022-12-26T11:53:15;12.10;90.40
43249;DHT22;29216;51.248;6.808;2022-12-26T11:55:41;12.00;85.50
43249;DHT22;29216;51.248;6.808;2022-12-26T11:58:14;11.90;89.80
43249;DHT22;29216;51.248;6.808;2022-12-26T12:00:41;12.00;99.90
43249;DHT22;29216;51.248;6.808;2022-12-26T12:03:16;11.70;99.90
43249;DHT22;29216;51.248;6.808;2022-12-26T12:05:50;11.50;99.90
43249;DHT22;29216;51.248;6.808;2022-12-26T12:21:43;11.00;99.90
43249;DHT22;29216;51.248;6.808;2022-12-26T12:24:25;11.10;99.90
43249;DHT22;29216;51.248;6.808;2022-12-26T12:32:21;11.20;99.90
43249;DHT22;29216;51.248;6.808;2022-12-26T12:37:49;11.20;99.90
43249;DHT22;29216;51.248;6.808;2022-12-26T13:00:16;10.90;99.90
43249;DHT22;29216;51.248;6.808;2022-12-26T13:08:41;10.80;99.90
43249;DHT22;29216;51.248;6.808;2022-12-26T13:11:35;10.80;99.90
43249;DHT22;29216;51.248;6.808;2022-12-26T13:16:41;10.50;81.10
43249;DHT22;29216;51.248;6.808;2022-12-26T13:19:24;10.30;82.60
43249;DHT22;29216;51.248;6.808;2022-12-26T13:21:53;10.10;91.70
43249;DHT22;29216;51.248;6.808;2022-12-26T13:27:31;9.80;98.30
43249;DHT22;29216;51.248;6.808;2022-12-26T13:29:59;9.70;95.80
43249;DHT22;29216;51.248;6.808;2022-12-26T13:32:30;9.60;98.70
43249;DHT22;29216;51.248;6.808;2022-12-26T13:34:58;9.60;94.40
43249;DHT22;29216;51.248;6.808;2022-12-26T13:40:13;9.60;95.60
43249;DHT22;29216;51.248;6.808;2022-12-26T13:43:06;9.60;98.70
43249;DHT22;29216;51.248;6.808;2022-12-26T13:45:54;9.70;92.20
43249;DHT22;29216;51.248;6.808;2022-12-26T13:51:01;9.80;91.50
43249;DHT22;29216;51.248;6.808;2022-12-26T14:01:39;9.80;94.60
43249;DHT22;29216;51.248;6.808;2022-12-26T14:09:36;9.80;84.90
43249;DHT22;29216;51.248;6.808;2022-12-26T14:14:54;9.80;82.80
43249;DHT22;29216;51.248;6.808;2022-12-26T14:25:38;9.70;72.60
43249;DHT22;29216;51.248;6.808;2022-12-26T14:33:50;9.70;76.50
43249;DHT22;29216;51.248;6.808;2022-12-26T14:36:52;9.60;82.30
43249;DHT22;29216;51.248;6.808;2022-12-26T14:44:54;9.60;81.10
43249;DHT22;29216;51.248;6.808;2022-12-26T14:47:44;9.60;59.60
43249;DHT22;29216;51.248;6.808;2022-12-26T14:50:50;9.50;65.20
43249;DHT22;29216;51.248;6.808;2022-12-26T15:00:52;9.30;19.10
43249;DHT22;29216;51.248;6.808;2022-12-26T15:12:12;9.10;47.90
43249;DHT22;29216;51.248;6.808;2022-12-26T15:45:28;8.70;71.00
43249;DHT22;29216;51.248;6.808;2022-12-26T15:51:00;8.60;58.70
43249;DHT22;29216;51.248;6.808;2022-12-26T15:56:51;8.50;53.10
43249;DHT22;29216;51.248;6.808;2022-12-26T16:02:14;8.40;54.20
43249;DHT22;29216;51.248;6.808;2022-12-26T16:10:39;8.20;70.60
43249;DHT22;29216;51.248;6.808;2022-12-26T16:18:19;8.10;71.40
43249;DHT22;29216;51.248;6.808;2022-12-26T16:20:46;8.00;78.40
43249;DHT22;29216;51.248;6.808;2022-12-26T16:23:35;8.00;72.70
43249;DHT22;29216;51.248;6.808;2022-12-26T16:26:01;8.00;75.50
43249;DHT22;29216;51.248;6.808;2022-12-26T16:28:34;7.90;69.00
43249;DHT22;29216;51.248;6.808;2022-12-26T16:31:01;7.90;77.90
43249;DHT22;29216;51.248;6.808;2022-12-26T16:33:33;7.80;65.20
43249;DHT22;29216;51.248;6.808;2022-12-26T16:36:02;7.80;74.10
43249;DHT22;29216;51.248;6.808;2022-12-26T16:38:29;7.70;79.10
43249;DHT22;29216;51.248;6.808;2022-12-26T16:40:56;7.60;88.50
43249;DHT22;29216;51.248;6.808;2022-12-26T16:43:30;7.50;79.10
43249;DHT22;29216;51.248;6.808;2022-12-26T16:46:02;7.30;86.20
43249;DHT22;29216;51.248;6.808;2022-12-26T16:48:31;7.20;89.70
43249;DHT22;29216;51.248;6.808;2022-12-26T16:51:03;7.10;90.80
43249;DHT22;29216;51.248;6.808;2022-12-26T16:58:42;6.80;80.60
43249;DHT22;29216;51.248;6.808;2022-12-26T17:01:18;6.70;85.30
43249;DHT22;29216;51.248;6.808;2022-12-26T17:06:32;6.60;85.20
43249;DHT22;29216;51.248;6.808;2022-12-26T17:09:06;6.60;90.60
43249;DHT22;29216;51.248;6.808;2022-12-26T17:11:37;6.40;95.50
43249;DHT22;29216;51.248;6.808;2022-12-26T17:14:05;6.40;92.20
43249;DHT22;29216;51.248;6.808;2022-12-26T17:16:33;6.40;92.70
43249;DHT22;29216;51.248;6.808;2022-12-26T17:19:18;6.40;91.10
43249;DHT22;29216;51.248;6.808;2022-12-26T17:24:50;6.40;90.90
43249;DHT22;29216;51.248;6.808;2022-12-26T17:27:20;6.50;91.90
43249;DHT22;29216;51.248;6.808;2022-12-26T17:29:57;6.40;79.60
43249;DHT22;29216;51.248;6.808;2022-12-26T17:32:39;6.40;85.80
43249;DHT22;29216;51.248;6.808;2022-12-26T17:35:23;6.20;91.40
43249;DHT22;29216;51.248;6.808;2022-12-26T17:38:01;6.00;92.30
43249;DHT22;29216;51.248;6.808;2022-12-26T17:40:35;6.00;96.00
43249;DHT22;29216;51.248;6.808;2022-12-26T17:45:38;5.80;97.10
43249;DHT22;29216;51.248;6.808;2022-12-26T17:48:05;5.60;96.70
43249;DHT22;29216;51.248;6.808;2022-12-26T17:50:33;5.50;97.90
43249;DHT22;29216;51.248;6.808;2022-12-26T17:53:05;5.40;98.20
43249;DHT22;29216;51.248;6.808;2022-12-26T17:55:32;5.30;98.80
43249;DHT22;29216;51.248;6.808;2022-12-26T17:57:57;5.20;99.40
43249;DHT22;29216;51.248;6.808;2022-12-26T18:00:25;5.20;99.90
43249;DHT22;29216;51.248;6.808;2022-12-26T18:02:51;5.10;99.90
43249;DHT22;29216;51.248;6.808;2022-12-26T18:05:18;5.10;99.90
43249;DHT22;29216;51.248;6.808;2022-12-26T18:07:44;5.10;99.90
43249;DHT22;29216;51.248;6.808;2022-12-26T18:10:22;5.00;99.90
43249;DHT22;29216;51.248;6.808;2022-12-26T18:12:49;5.10;99.90
43249;DHT22;29216;51.248;6.808;2022-12-26T18:15:16;5.10;99.20
43249;DHT22;29216;51.248;6.808;2022-12-26T18:17:42;5.10;97.90
43249;DHT22;29216;51.248;6.808;2022-12-26T18:20:14;5.10;97.60
43249;DHT22;29216;51.248;6.808;2022-12-26T18:22:40;5.00;98.20
43249;DHT22;29216;51.248;6.808;2022-12-26T18:25:06;4.90;98.90
43249;DHT22;29216;51.248;6.808;2022-12-26T18:27:32;4.90;99.90
43249;DHT22;29216;51.248;6.808;2022-12-26T18:29:59;4.90;99.90
43249;DHT22;29216;51.248;6.808;2022-12-26T18:32:26;4.90;99.90
43249;DHT22;29216;51.248;6.808;2022-12-26T18:34:52;4.90;99.90
43249;DHT22;29216;51.248;6.808;2022-12-26T18:37:20;4.80;99.90
43249;DHT22;29216;51.248;6.808;2022-12-26T18:39:46;4.80;99.90
43249;DHT22;29216;51.248;6.808;2022-12-26T18:42:13;4.70;99.90
43249;DHT22;29216;51.248;6.808;2022-12-26T18:44:39;4.60;99.90
43249;DHT22;29216;51.248;6.808;2022-12-26T18:47:08;4.50;99.90
43249;DHT22;29216;51.248;6.808;2022-12-26T18:49:34;4.40;99.90
43249;DHT22;29216;51.248;6.808;2022-12-26T18:52:00;4.40;99.90
43249;DHT22;29216;51.248;6.808;2022-12-26T18:54:25;4.40;99.90
43249;DHT22;29216;51.248;6.808;2022-12-26T18:56:51;4.30;99.90
43249;DHT22;29216;51.248;6.808;2022-12-26T18:59:17;4.30;99.90
43249;DHT22;29216;51.248;6.808;2022-12-26T19:01:43;4.30;99.90
43249;DHT22;29216;51.248;6.808;2022-12-26T19:04:10;4.20;99.90
43249;DHT22;29216;51.248;6.808;2022-12-26T19:06:37;4.20;99.90
43249;DHT22;29216;51.248;6.808;2022-12-26T19:09:03;4.10;99.90
43249;DHT22;29216;51.248;6.808;2022-12-26T19:11:29;4.10;99.90
43249;DHT22;29216;51.248;6.808;2022-12-26T19:13:54;4.10;99.90
43249;DHT22;29216;51.248;6.808;2022-12-26T19:16:20;4.10;99.90
43249;DHT22;29216;51.248;6.808;2022-12-26T19:18:47;4.10;99.90
43249;DHT22;29216;51.248;6.808;2022-12-26T19:21:14;4.00;99.90
43249;DHT22;29216;51.248;6.808;2022-12-26T19:23:40;3.90;99.90
43249;DHT22;29216;51.248;6.808;2022-12-26T19:26:11;4.00;99.90
43249;DHT22;29216;51.248;6.808;2022-12-26T19:28:38;4.00;99.90
43249;DHT22;29216;51.248;6.808;2022-12-26T19:31:12;4.00;99.90
43249;DHT22;29216;51.248;6.808;2022-12-26T19:33:38;4.00;99.90
43249;DHT22;29216;51.248;6.808;2022-12-26T19:36:05;3.90;99.90
43249;DHT22;29216;51.248;6.808;2022-12-26T19:38:31;3.90;99.90
43249;DHT22;29216;51.248;6.808;2022-12-26T19:41:05;3.80;99.90
43249;DHT22;29216;51.248;6.808;2022-12-26T19:43:31;3.80;99.90
43249;DHT22;29216;51.248;6.808;2022-12-26T19:46:06;3.70;99.90
43249;DHT22;29216;51.248;6.808;2022-12-26T19:48:32;3.70;99.90
43249;DHT22;29216;51.248;6.808;2022-12-26T19:51:04;3.70;99.90
43249;DHT22;29216;51.248;6.808;2022-12-26T19:53:30;3.70;99.90
43249;DHT22;29216;51.248;6.808;2022-12-26T19:55:56;3.70;99.90
43249;DHT22;29216;51.248;6.808;2022-12-26T19:58:22;3.70;99.90
43249;DHT22;29216;51.248;6.808;2022-12-26T20:00:47;3.70;99.90
43249;DHT22;29216;51.248;6.808;2022-12-26T20:03:14;3.70;99.90
43249;DHT22;29216;51.248;6.808;2022-12-26T20:05:39;3.70;99.90